Matsuyama Maru No.11 — JD3027 — position and weather

sailwx.info

Track history (hours):
 
Tides and Currents Weather Stations Pressure Air Temp Water Temp Dewpoint Dewpoint Depression Visibility Wind Speed Wind Dir Waves Ship Positions

Matsuyama Maru No.11

Last reported at 2017-Oct-15 11:08 UTC. Time now 2017-Oct-18 07:57 UTC.
Position N 34°52' E 139°49'.

Length 104 m; draft 6.5 m.

Type: Tanker. MMSI: 431001151.

Date/timePositionNaut miles runAvg speedWind from/ knotsBaromVisibWave heightAir tempDewpointWater temp
2017-Oct-15 11:08N 34°52' E 139°49'213.4
2017-Oct-15 10:58N 34°54' E 139°47'715.0
2017-Oct-15 10:30N 34°60' E 139°43'714.4
2017-Oct-15 10:00N 35°07' E 139°45'714.0
2017-Oct-15 09:30N 35°13' E 139°47'612.6
2017-Oct-15 09:00N 35°19' E 139°43'510.9
2017-Oct-15 08:30N 35°24' E 139°40'1 1.7
2017-Oct-15 08:00N 35°25' E 139°39'0 0.0
2017-Oct-15 07:30N 35°25' E 139°39'0 0.0
2017-Oct-15 07:00N 35°25' E 139°39'0 0.0
2017-Oct-15 06:30N 35°25' E 139°39'0 0.0
2017-Oct-15 06:00N 35°25' E 139°39'0 0.0
2017-Oct-15 05:30N 35°25' E 139°39'0 0.0
2017-Oct-15 05:00N 35°25' E 139°39'0 0.0
2017-Oct-15 04:30N 35°25' E 139°39'0 0.0
2017-Oct-15 04:00N 35°25' E 139°39'0 0.0
2017-Oct-15 03:30N 35°25' E 139°39'0 0.0
2017-Oct-15 03:00N 35°25' E 139°39'0 0.0
2017-Oct-15 02:30N 35°25' E 139°39'0 0.0
2017-Oct-15 02:00N 35°25' E 139°39'0 0.0
2017-Oct-15 01:30N 35°25' E 139°39'2 4.6
2017-Oct-15 01:00N 35°23' E 139°41'0 0.2
2017-Oct-15 00:30N 35°23' E 139°41'0 0.0
2017-Oct-15 00:00N 35°23' E 139°41'0 0.0
2017-Oct-14 23:30N 35°23' E 139°41'0 0.0
2017-Oct-14 23:00N 35°23' E 139°41'0 0.0
2017-Oct-14 22:30N 35°23' E 139°41'0 0.1
2017-Oct-14 22:00N 35°23' E 139°41'0 0.0
2017-Oct-14 21:30N 35°23' E 139°41'0 0.1
2017-Oct-14 21:00N 35°23' E 139°41'0 0.0
2017-Oct-14 20:30N 35°23' E 139°41'0 0.1
2017-Oct-14 20:00N 35°23' E 139°41'0 0.0
2017-Oct-14 19:30N 35°23' E 139°41'0 0.0
2017-Oct-14 19:00N 35°23' E 139°41'0 0.1
2017-Oct-14 18:30N 35°23' E 139°41'0 0.0
2017-Oct-14 18:00N 35°23' E 139°41'0 0.0
2017-Oct-14 17:30N 35°23' E 139°41'0 0.0
2017-Oct-14 17:00N 35°23' E 139°41'0 0.0
2017-Oct-14 16:30N 35°23' E 139°41'0 0.1
2017-Oct-14 16:00N 35°23' E 139°41'0 0.1
2017-Oct-14 15:30N 35°23' E 139°41'1 1.1
2017-Oct-14 15:01N 35°22' E 139°41'510.7
2017-Oct-14 14:30N 35°18' E 139°45'611.7
2017-Oct-14 14:00N 35°12' E 139°47'612.2
2017-Oct-14 13:30N 35°06' E 139°45'612.3
2017-Oct-14 13:00N 35°01' E 139°40'714.0
2017-Oct-14 12:30N 34°57' E 139°33'23110.8
2017-Oct-13 15:03N 34°07' E 134°59'113.7
2017-Oct-13 15:00N 34°08' E 134°59'1614.5
2017-Oct-13 13:53N 34°24' E 135°00'614.5
2017-Oct-13 13:29N 34°30' E 135°02'713.6
2017-Oct-13 13:00N 34°36' E 135°02'714.3
2017-Oct-13 12:30N 34°35' E 134°54'  
2017-Oct-11 00:00N 34°32' E 135°24'0 0.1
2017-Oct-10 23:28N 34°32' E 135°24'3 5.9
2017-Oct-10 22:58N 34°33' E 135°21'2 3.1
2017-Oct-10 22:29N 34°32' E 135°19'0 0.0
2017-Oct-10 21:47N 34°32' E 135°19'0 0.2
2017-Oct-10 21:29N 34°32' E 135°19'0 0.0
2017-Oct-10 20:53N 34°32' E 135°19'0 0.0
2017-Oct-10 20:23N 34°32' E 135°19'0 0.0
2017-Oct-10 19:59N 34°32' E 135°19'0 0.0
2017-Oct-10 17:35N 34°32' E 135°19'0 0.0
2017-Oct-10 17:23N 34°32' E 135°19'0 0.0
2017-Oct-10 16:53N 34°32' E 135°19'0 0.0
2017-Oct-10 16:29N 34°32' E 135°19'0 0.0
2017-Oct-10 15:59N 34°32' E 135°19'0 0.0
2017-Oct-10 15:29N 34°32' E 135°19'0 0.0
2017-Oct-10 14:47N 34°32' E 135°19'0 0.1
2017-Oct-10 13:59N 34°32' E 135°19'0 0.1
2017-Oct-10 13:29N 34°32' E 135°19'0 0.0
2017-Oct-10 12:59N 34°32' E 135°19'0 0.0
2017-Oct-10 12:11N 34°32' E 135°19'0 0.0
2017-Oct-10 11:59N 34°32' E 135°19'0 0.0
2017-Oct-10 10:47N 34°32' E 135°19'0 0.0
2017-Oct-10 10:29N 34°32' E 135°19'0 0.1
2017-Oct-10 10:00N 34°32' E 135°19'5 9.8
2017-Oct-10 09:31N 34°34' E 135°14'714.8
2017-Oct-10 09:01N 34°35' E 135°05'  
Track history (hours):
 
Tides and Currents Weather Stations Pressure Air Temp Water Temp Dewpoint Dewpoint Depression Visibility Wind Speed Wind Dir Waves Ship Positions

Matsuyama Maru No.11

Last reported at 2017-Oct-15 11:08 UTC. Time now 2017-Oct-18 07:57 UTC.
Position N 34°52' E 139°49'.

Length 104 m; draft 6.5 m.

Type: Tanker. MMSI: 431001151.

Date/timePositionNaut miles runAvg speedWind from/ knotsBaromVisibWave heightAir tempDewpointWater temp
2017-Oct-15 11:08N 34°52' E 139°49'213.4
2017-Oct-15 10:58N 34°54' E 139°47'715.0
2017-Oct-15 10:30N 34°60' E 139°43'714.4
2017-Oct-15 10:00N 35°07' E 139°45'714.0
2017-Oct-15 09:30N 35°13' E 139°47'612.6
2017-Oct-15 09:00N 35°19' E 139°43'510.9
2017-Oct-15 08:30N 35°24' E 139°40'1 1.7
2017-Oct-15 08:00N 35°25' E 139°39'0 0.0
2017-Oct-15 07:30N 35°25' E 139°39'0 0.0
2017-Oct-15 07:00N 35°25' E 139°39'0 0.0
2017-Oct-15 06:30N 35°25' E 139°39'0 0.0
2017-Oct-15 06:00N 35°25' E 139°39'0 0.0
2017-Oct-15 05:30N 35°25' E 139°39'0 0.0
2017-Oct-15 05:00N 35°25' E 139°39'0 0.0
2017-Oct-15 04:30N 35°25' E 139°39'0 0.0
2017-Oct-15 04:00N 35°25' E 139°39'0 0.0
2017-Oct-15 03:30N 35°25' E 139°39'0 0.0
2017-Oct-15 03:00N 35°25' E 139°39'0 0.0
2017-Oct-15 02:30N 35°25' E 139°39'0 0.0
2017-Oct-15 02:00N 35°25' E 139°39'0 0.0
2017-Oct-15 01:30N 35°25' E 139°39'2 4.6
2017-Oct-15 01:00N 35°23' E 139°41'0 0.2
2017-Oct-15 00:30N 35°23' E 139°41'0 0.0
2017-Oct-15 00:00N 35°23' E 139°41'0 0.0
2017-Oct-14 23:30N 35°23' E 139°41'0 0.0
2017-Oct-14 23:00N 35°23' E 139°41'0 0.0
2017-Oct-14 22:30N 35°23' E 139°41'0 0.1
2017-Oct-14 22:00N 35°23' E 139°41'0 0.0
2017-Oct-14 21:30N 35°23' E 139°41'0 0.1
2017-Oct-14 21:00N 35°23' E 139°41'0 0.0
2017-Oct-14 20:30N 35°23' E 139°41'0 0.1
2017-Oct-14 20:00N 35°23' E 139°41'0 0.0
2017-Oct-14 19:30N 35°23' E 139°41'0 0.0
2017-Oct-14 19:00N 35°23' E 139°41'0 0.1
2017-Oct-14 18:30N 35°23' E 139°41'0 0.0
2017-Oct-14 18:00N 35°23' E 139°41'0 0.0
2017-Oct-14 17:30N 35°23' E 139°41'0 0.0
2017-Oct-14 17:00N 35°23' E 139°41'0 0.0
2017-Oct-14 16:30N 35°23' E 139°41'0 0.1
2017-Oct-14 16:00N 35°23' E 139°41'0 0.1
2017-Oct-14 15:30N 35°23' E 139°41'1 1.1
2017-Oct-14 15:01N 35°22' E 139°41'510.7
2017-Oct-14 14:30N 35°18' E 139°45'611.7
2017-Oct-14 14:00N 35°12' E 139°47'612.2
2017-Oct-14 13:30N 35°06' E 139°45'612.3
2017-Oct-14 13:00N 35°01' E 139°40'714.0
2017-Oct-14 12:30N 34°57' E 139°33'23110.8
2017-Oct-13 15:03N 34°07' E 134°59'113.7
2017-Oct-13 15:00N 34°08' E 134°59'1614.5
2017-Oct-13 13:53N 34°24' E 135°00'614.5
2017-Oct-13 13:29N 34°30' E 135°02'713.6
2017-Oct-13 13:00N 34°36' E 135°02'714.3
2017-Oct-13 12:30N 34°35' E 134°54'  
2017-Oct-11 00:00N 34°32' E 135°24'0 0.1
2017-Oct-10 23:28N 34°32' E 135°24'3 5.9
2017-Oct-10 22:58N 34°33' E 135°21'2 3.1
2017-Oct-10 22:29N 34°32' E 135°19'0 0.0
2017-Oct-10 21:47N 34°32' E 135°19'0 0.2
2017-Oct-10 21:29N 34°32' E 135°19'0 0.0
2017-Oct-10 20:53N 34°32' E 135°19'0 0.0
2017-Oct-10 20:23N 34°32' E 135°19'0 0.0
2017-Oct-10 19:59N 34°32' E 135°19'0 0.0
2017-Oct-10 17:35N 34°32' E 135°19'0 0.0
2017-Oct-10 17:23N 34°32' E 135°19'0 0.0
2017-Oct-10 16:53N 34°32' E 135°19'0 0.0
2017-Oct-10 16:29N 34°32' E 135°19'0 0.0
2017-Oct-10 15:59N 34°32' E 135°19'0 0.0
2017-Oct-10 15:29N 34°32' E 135°19'0 0.0
2017-Oct-10 14:47N 34°32' E 135°19'0 0.1
2017-Oct-10 13:59N 34°32' E 135°19'0 0.1
2017-Oct-10 13:29N 34°32' E 135°19'0 0.0
2017-Oct-10 12:59N 34°32' E 135°19'0 0.0
2017-Oct-10 12:11N 34°32' E 135°19'0 0.0
2017-Oct-10 11:59N 34°32' E 135°19'0 0.0
2017-Oct-10 10:47N 34°32' E 135°19'0 0.0
2017-Oct-10 10:29N 34°32' E 135°19'0 0.1
2017-Oct-10 10:00N 34°32' E 135°19'5 9.8
2017-Oct-10 09:31N 34°34' E 135°14'714.8
2017-Oct-10 09:01N 34°35' E 135°05'  

Dump ship's entire track history